Saint-Vith, Belgium
Current Conditions -  °F | °C
As of 9:13 PM on Thursday 23 Oct 2014 (Local Time) from EBLB Reporting Station
Overcast Overcast  
Wind Chill: 46°   Ceiling: 400
Heat Index: 46°   Visibility: 2.9mi
Dew Point: 45°   Wind: 3mph
Humidity: 93%   Direction: 210°SSW
Pressure: 30.21"   Gusts: NA
Location:  50.28°N, 6.13°E
Report Text: EBLB 231913Z AUTO 21003KT 4700 FEW002/// BKN004/// OVC010/// 08/07 Q1023 YLO
Loading
Personal Weather Stations






























Interactive Weather Map
Tropical Storm Tracking
New forecast layout! Learn more

10-Day Weather Forecast

Advertisements
Track Severe Weather on mobile